West Palm Beach, FL

11:25 AM EST on November 23, 2014 (GMT -0500)
Palm Beach International | Change Station
CLOSE
Current Station
Airport
Location: West Palm Beach,
Elevation: 20 ft
Nearby Weather Stations
Active Advisory: Coastal Hazard Statement

Elev 20 ft 26.68 °N, 80.10 °W | Updated 32 minutes ago

Mostly Cloudy
Mostly Cloudy
82 °F
Feels Like 87 °F
N
16
Wind Variable Wind from SE
Gusts 25 mph

Today
High -- | Low -- °F
--% Chance of Precip.
Yesterday
High -- | Low -- °F
Precip. -- in
6:45 AM 5:27 PM
New Moon, 2% visible
Pressure 30.03 in
Visibility 10.0 miles
Clouds Few 2100 ft
Scattered Clouds 2800 ft
Mostly Cloudy 3700 ft
Heat Index 87 °F
Dew Point 73 °F
Humidity 74%
Rainfall 0.02 in
Snow Depth Not available.
UV 3 out of 12
Pollen 3.10 out of 12
Air Quality Not available.
Flu Activity Not available.
METAR KPBI 231553Z 14014G22KT 10SM FEW021 SCT028 BKN037 28/23 A3003 RMK AO2 PK WND 14027/1509 SLP167 T02780228

More Conditions Fewer Conditions

Pressure 30.03 in
Visibility 10.0 miles
Clouds Few 2100 ft
Scattered Clouds 2800 ft
Mostly Cloudy 3700 ft
Heat Index 87 °F
Dew Point 73 °F
Humidity 74%
Rainfall 0.02 in
Snow Depth Not available.
UV 3 out of 12
Pollen 3.10 out of 12
Air Quality Not available.
Flu Activity Not available.
METAR KPBI 231553Z 14014G22KT 10SM FEW021 SCT028 BKN037 28/23 A3003 RMK AO2 PK WND 14027/1509 SLP167 T02780228

More Conditions Fewer Conditions

10-Day Weather Forecast

Almanac

Astronomy

Nov. 23, 2014 Rise Set
Actual Time
Civil Twilight
Nautical Twilight
Astronomical Twilight
Moon
Length of Visible Light
Length of Day
Tomorrow will be .
, % of the Moon is Illuminated

Today's Extremes

State Highs State Lows

Community

WunderPhotos

Upload Photos

1,773,089 photos uploaded!

WunderBlogs® & News

Nearby

Air Quality

  Air Quality AQ Index Pollutant
Not available.

Snow Depth

Station Depth Elevation

Earthquake Activity

City Distance Mag. Time & Date
Minimum magnitude displayed is 2.5.

Coastal Water Temperatures

Place Temperature

Nearby Weather Stations